METAR Data
IDs: Format: Raw Decoded Include TAF

Data at: 1009 UTC 18 Jan 2022

KAEJ 180955Z AUTO 27003KT 10SM CLR M04/M13 A2996 RMK AO2 T10431129
KAEJ 180935Z AUTO 00000KT 10SM CLR M04/M13 A2997 RMK AO2 T10381129
KAEJ 180915Z AUTO 00000KT 10SM CLR M04/M13 A2997 RMK AO2 T10371126
KAEJ 180855Z AUTO 06003KT 10SM CLR M01/M14 A2997 RMK AO2 T10151141
KAEJ 180835Z AUTO 26004KT 10SM CLR M01/M14 A2996 RMK AO2 T10141145
KAEJ 180815Z AUTO 26004KT 10SM CLR M02/M14 A2996 RMK AO2 T10251136
KAEJ 180755Z AUTO 29005KT 10SM CLR M01/M14 A2997 RMK AO2 T10121145
KAEJ 180735Z AUTO 32008KT 10SM CLR 00/M16 A2997 RMK AO2 T00041156
KAEJ 180715Z AUTO 29007KT 10SM CLR M01/M13 A2998 RMK AO2 T10091135
KAEJ 180655Z AUTO 28004KT 10SM CLR 00/M15 A2998 RMK AO2 T00021147
KAEJ 180635Z AUTO 29004KT 10SM CLR 01/M15 A2998 RMK AO2 T00131152
KAEJ 180615Z AUTO 29008G15KT 10SM CLR 02/M16 A2999 RMK AO2 T00191158
KAEJ 180555Z AUTO 28005KT 10SM CLR 02/M16 A3000 RMK AO2 T00171162 10066 20010 401051095
KAEJ 180535Z AUTO 33009KT 10SM CLR 02/M16 A3000 RMK AO2 T00191157
KAEJ 180515Z AUTO 32011G17KT 10SM CLR 01/M15 A2999 RMK AO2 T00131151
KAEJ 180455Z AUTO 33010KT 10SM CLR 01/M14 A3000 RMK AO2 T00111142
KAEJ 180435Z AUTO 33008KT 10SM CLR 02/M14 A3000 RMK AO2 T00181145
KAEJ 180415Z AUTO 30010KT 10SM CLR 01/M13 A3001 RMK AO2 T00111133
KAEJ 180355Z AUTO 31007KT 10SM CLR 03/M14 A3002 RMK AO2 T00251142
KAEJ 180335Z AUTO 32006KT 10SM CLR 03/M14 A3002 RMK AO2 T00341145
KAEJ 180315Z AUTO 32007KT 10SM CLR 02/M14 A3002 RMK AO2 T00231138
KAEJ 180255Z AUTO 33009G18KT 280V030 10SM CLR 05/M15 A3002 RMK AO2 T00531155
KAEJ 180235Z AUTO 33007G15KT 10SM CLR 05/M15 A3002 RMK AO2 T00521146
KAEJ 180215Z AUTO 35007KT 10SM CLR 03/M13 A3002 RMK AO2 T00291135
KAEJ 180155Z AUTO 29011G15KT 10SM CLR 04/M14 A3002 RMK AO2 T00411141
KAEJ 180135Z AUTO 29009KT 10SM CLR 05/M14 A3002 RMK AO2 T00471139
KAEJ 180115Z AUTO 29008KT 10SM CLR 03/M13 A3001 RMK AO2 T00331130
KAEJ 180055Z AUTO 30008KT 10SM CLR 03/M13 A3001 RMK AO2 T00331130
KAEJ 180035Z AUTO 29006KT 10SM CLR 03/M13 A3001 RMK AO2 T00341131
KAEJ 180015Z AUTO 31007KT 10SM CLR 05/M13 A3000 RMK AO2 T00521133
KAEJ 172355Z AUTO 31008KT 10SM CLR 07/M13 A3000 RMK AO2 T00681132 10105 20032
KAEJ 172335Z AUTO 31006KT 10SM CLR 07/M13 A3000 RMK AO2 T00681128
KAEJ 172315Z AUTO 00000KT 10SM CLR 08/M14 A2999 RMK AO2 T00831141
KAEJ 172255Z AUTO 18003KT 10SM CLR 10/M14 A2999 RMK AO2 T00951144
KAEJ 172235Z AUTO 00000KT 10SM CLR 10/M14 A3000 RMK AO2 T01011141
KAEJ 172215Z AUTO 00000KT 10SM CLR 10/M14 A2999 RMK AO2 T01011143
KAEJ 172155Z AUTO 00000KT 10SM CLR 11/M15 A3000 RMK AO2 T01051146
KAEJ 172135Z AUTO 00000KT 10SM CLR 09/M15 A3000 RMK AO2 T00921147
KAEJ 172115Z AUTO 12005KT 10SM CLR 08/M15 A3000 RMK AO2 T00771152
KAEJ 172055Z AUTO 10004KT 10SM CLR 07/M15 A3000 RMK AO2 T00721152
KAEJ 172035Z AUTO 13005KT 10SM CLR 07/M15 A3001 RMK AO2 T00721152
KAEJ 172015Z AUTO 18004KT 10SM CLR 07/M15 A3002 RMK AO2 T00711149
KAEJ 171955Z AUTO 15006KT 10SM CLR 08/M16 A3005 RMK AO2 T00781160
KAEJ 171935Z AUTO 00000KT 10SM CLR 07/M15 A3005 RMK AO2 T00701146
KAEJ 171915Z AUTO 00000KT 10SM CLR 05/M15 A3006 RMK AO2 T00501148
KAEJ 171855Z AUTO 00000KT 10SM CLR 05/M15 A3009 RMK AO2 T00461147
KAEJ 171835Z AUTO 00000KT 10SM CLR 04/M14 A3009 RMK AO2 T00431141
KAEJ 171815Z AUTO 00000KT 10SM CLR 04/M14 A3012 RMK AO2 T00361140
KAEJ 171755Z AUTO 00000KT 10SM CLR 03/M14 A3012 RMK AO2 T00311136 10032 21095
KAEJ 171735Z AUTO 00000KT 10SM CLR 03/M14 A3013 RMK AO2 T00291137
KAEJ 171715Z AUTO 00000KT 10SM CLR 02/M14 A3013 RMK AO2 T00191137
KAEJ 171655Z AUTO 00000KT 10SM CLR 00/M13 A3014 RMK AO2 T00001133
KAEJ 171635Z AUTO 00000KT 10SM CLR 00/M13 A3014 RMK AO2 T10041128
KAEJ 171615Z AUTO 00000KT 10SM CLR M01/M13 A3014 RMK AO2 T10121128
KAEJ 171555Z AUTO 00000KT 10SM CLR M03/M13 A3014 RMK AO2 T10311129
KAEJ 171535Z AUTO 00000KT 10SM CLR M05/M14 A3014 RMK AO2 T10501136
KAEJ 171515Z AUTO 00000KT 10SM CLR M05/M13 A3013 RMK AO2 T10511132
KAEJ 171455Z AUTO 00000KT 10SM CLR M08/M14 A3013 RMK AO2 T10761142
KAEJ 171435Z AUTO 00000KT 10SM CLR M07/M14 A3013 RMK AO2 T10731142
KAEJ 171415Z AUTO 00000KT 10SM CLR M08/M14 A3012 RMK AO2 T10851145
KAEJ 171355Z AUTO 00000KT 10SM CLR M07/M14 A3012 RMK AO2 T10751145
KAEJ 171335Z AUTO 00000KT 10SM CLR M09/M15 A3012 RMK AO2 T10921146
KAEJ 171315Z AUTO 00000KT 10SM CLR M09/M14 A3012 RMK AO2 T10891145
KAEJ 171255Z AUTO 00000KT 10SM CLR M08/M15 A3012 RMK AO2 T10811146
KAEJ 171235Z AUTO 00000KT 10SM CLR M09/M14 A3012 RMK AO2 T10911145
KAEJ 171215Z AUTO 00000KT 10SM CLR M09/M15 A3012 RMK AO2 T10861147
KAEJ 171155Z AUTO 00000KT 10SM CLR M07/M15 A3012 RMK AO2 T10741149 11018 21090
KAEJ 171135Z AUTO 21004KT 10SM CLR M08/M15 A3012 RMK AO2 T10781146
KAEJ 171115Z AUTO 26005KT 10SM CLR M08/M15 A3013 RMK AO2 T10791152
KAEJ 171055Z AUTO 00000KT 10SM CLR M07/M15 A3012 RMK AO2 T10731155
KAEJ 171035Z AUTO 00000KT 10SM CLR M06/M16 A3013 RMK AO2 T10631158
KAEJ 171015Z AUTO 00000KT 10SM CLR M08/M15 A3013 RMK AO2 T10801155
KAEJ 170955Z AUTO 00000KT 10SM CLR M08/M15 A3014 RMK AO2 T10771155
KAEJ 170935Z AUTO 21003KT 10SM CLR M08/M15 A3014 RMK AO2 T10781154
KAEJ 170915Z AUTO 00000KT 10SM CLR M06/M16 A3014 RMK AO2 T10601158
KAEJ 170855Z AUTO 00000KT 10SM CLR M04/M16 A3014 RMK AO2 T10391163
KAEJ 170835Z AUTO 15003KT 10SM CLR M05/M16 A3014 RMK AO2 T10521164
KAEJ 170815Z AUTO 00000KT 10SM CLR M04/M17 A3016 RMK AO2 T10431169
KAEJ 170755Z AUTO 00000KT 10SM CLR M04/M17 A3017 RMK AO2 T10421170
KAEJ 170735Z AUTO 01003KT 10SM CLR M05/M17 A3017 RMK AO2 T10461170
KAEJ 170715Z AUTO 07005KT 10SM CLR M04/M17 A3017 RMK AO2 T10401168
KAEJ 170655Z AUTO 00000KT 10SM CLR M02/M18 A3017 RMK AO2 T10181179
KAEJ 170635Z AUTO 00000KT 10SM CLR M04/M17 A3018 RMK AO2 T10431170
KAEJ 170615Z AUTO 00000KT 10SM CLR M03/M17 A3018 RMK AO2 T10321173
KAEJ 170555Z AUTO 32006KT 10SM CLR M02/M18 A3019 RMK AO2 T10171177 10053 21025 401151093
KAEJ 170535Z AUTO 31010KT 10SM CLR M02/M17 A3018 RMK AO2 T10161174
KAEJ 170515Z AUTO 26006KT 10SM CLR M01/M18 A3019 RMK AO2 T10121176
KAEJ 170455Z AUTO 26006KT 10SM CLR M02/M17 A3019 RMK AO2 T10191173
KAEJ 170435Z AUTO 30006KT 10SM CLR M01/M18 A3020 RMK AO2 T10101180
KAEJ 170415Z AUTO 32008KT 10SM CLR 00/M18 A3019 RMK AO2 T10021178
KAEJ 170355Z AUTO 31007KT 10SM CLR M01/M18 A3019 RMK AO2 T10071177
KAEJ 170335Z AUTO 32006KT 10SM CLR 00/M18 A3019 RMK AO2 T10011180
KAEJ 170315Z AUTO 31010KT 10SM CLR 01/M18 A3018 RMK AO2 T00051178
KAEJ 170255Z AUTO 32008KT 10SM CLR 00/M18 A3018 RMK AO2 T00021176
KAEJ 170235Z AUTO 34009KT 10SM CLR 01/M18 A3018 RMK AO2 T00101178
KAEJ 170215Z AUTO 34010KT 10SM CLR 01/M18 A3018 RMK AO2 T00101181
KAEJ 170155Z AUTO 34006KT 10SM CLR 01/M18 A3019 RMK AO2 T00141185
KAEJ 170135Z AUTO 33006KT 10SM CLR 01/M18 A3018 RMK AO2 T00121184
KAEJ 170115Z AUTO 36005KT 10SM CLR 02/M19 A3017 RMK AO2 T00181186
KAEJ 170055Z AUTO 34007KT 10SM CLR 02/M19 A3017 RMK AO2 T00171186
KAEJ 170035Z AUTO 34005KT 10SM CLR 03/M20 A3015 RMK AO2 T00261196
KAEJ 170015Z AUTO 29007KT 10SM CLR 04/M20 A3014 RMK AO2 T00411198
KAEJ 162355Z AUTO 29008KT 10SM CLR 06/M21 A3014 RMK AO2 T00551207 10115 20050
KAEJ 162335Z AUTO 29007KT 10SM CLR 06/M21 A3012 RMK AO2 T00571207
KAEJ 162315Z AUTO 31009KT 10SM CLR 08/M21 A3013 RMK AO2 T00831210
KAEJ 162255Z AUTO 32012KT 10SM CLR 09/M21 A3014 RMK AO2 T00901215
KAEJ 162235Z AUTO 31014G18KT 10SM CLR 09/M22 A3014 RMK AO2 T00911217
KAEJ 162215Z AUTO 31013G18KT 10SM CLR 10/M22 A3013 RMK AO2 T00991220